19:34
Airports
History
Links
Donate
Help keep this website running!
PayPal
Bitcoin
Information on this page is community maintained and may be outdated or inaccurate and is intended for reference only or PC simulator navigating.
Always use approved charts for navigating.
LIRU
UrbeEdited 30-Jun-2011
Urbe (LIRU)
Rome, Lazio, Italy (138)
(C)
Lat/Lng:41° 57' 8.55" N / 12° 30' 8.1" E
41.952376 / 12.50225
Elevation:55'ft 17mMSL
ID / ICAO:LIRU
Runways:1
Longest:(16-34) 1,078.3m 3,538ft Asphalt
Controlled:Yes
Beacon:White-Green
Distance To
Airport ID:
Airport Radio Frequencies
Ground: 122.7
Tower: 123.8
Nearby VORs <50NM
Nearby NDBs
METARUpdated 05-27-17 16:50 GMT
Altimeter: 30.00
Visibility: 6.2 statute miles
Wind: 8 knots (220°)
Temp: 25°c 77°f
Humidity: 38.8%

METAR: LIRU 271650Z 22008KT 9999 FEW040 25/10 Q1016

(Powered by phpweather)
Runway 16 / 34
Dimensions:1078.3 x 29.9m 3538' x 98'ft
Surface:Asphalt
Runway 16 [A]Runway 34 [B]
Heading:160°TH 340°TH
Lat:
Lng:
41° 57' 25.05"N
12° 30' 0.03"E
41° 56' 52.05"N
12° 30' 16.17"E
User Notes and Comments
Google Map
Nearby Airports
(C) CIAMPINO 11.6 NM
LIRA (WX) SSE 155°
(C) GUIDONIA 12.3 NM
LIRG (WX) ENE 77°
(C) Roma Fiumicino Leonardo Da Vinci 16.1 NM
LIRF (WX) SW 233°
(C) Pratica Di Mare 20.8 NM
LIRE (WX) S 188°
(C) LATINA 35.2 NM
LIRL (WX) SE 143°
4 Rieti 37.3 NM
LIQN (WX) NNE 28°
(C) VITERBO 40.3 NM
LIRV (WX) NW 325°
VFR Chart
Flight Planning at SkyVector.com